createdAt,value
2018-08-13T00:01:51.118Z,98994.00
2018-08-13T00:04:20.155Z,98989.00
2018-08-13T00:06:49.391Z,98990.00
2018-08-13T00:09:23.836Z,98986.00
2018-08-13T00:11:53.400Z,98976.00
2018-08-13T00:14:22.533Z,98980.00
2018-08-13T00:16:51.695Z,98970.00
2018-08-13T00:19:20.831Z,98968.00
2018-08-13T00:21:49.888Z,98962.00
2018-08-13T00:24:19.118Z,98957.00
2018-08-13T00:26:49.253Z,98952.00
2018-08-13T00:29:19.319Z,98954.00
2018-08-13T00:31:49.545Z,98952.00
2018-08-13T00:34:18.647Z,98947.00
2018-08-13T00:36:47.698Z,98943.00
2018-08-13T00:39:16.756Z,98944.00
2018-08-13T00:41:45.916Z,98944.00
2018-08-13T00:44:15.011Z,98945.00
2018-08-13T00:46:44.369Z,98941.00
2018-08-13T00:49:13.488Z,98935.00
2018-08-13T00:51:42.694Z,98929.00
2018-08-13T00:54:11.812Z,98929.00
2018-08-13T00:56:41.049Z,98920.00
2018-08-13T00:59:16.707Z,98914.00
2018-08-13T01:01:45.807Z,98908.00
2018-08-13T01:04:15.114Z,98906.00
2018-08-13T01:06:44.171Z,98904.00
2018-08-13T01:09:14.806Z,98900.00
2018-08-13T01:11:43.894Z,98897.00
2018-08-13T01:14:13.026Z,98896.00
2018-08-13T01:16:42.107Z,98888.00
2018-08-13T01:19:11.147Z,98879.00
2018-08-13T01:21:40.264Z,98880.00
2018-08-13T01:24:09.376Z,98878.00
2018-08-13T01:26:39.158Z,98874.00
2018-08-13T01:29:09.225Z,98872.00
2018-08-13T01:31:39.259Z,98875.00
2018-08-13T01:34:08.328Z,98871.00
2018-08-13T01:36:37.416Z,98872.00
2018-08-13T01:39:09.145Z,98874.00
2018-08-13T01:41:38.353Z,98864.00
2018-08-13T01:44:07.465Z,98859.00
2018-08-13T01:46:36.588Z,98849.00
2018-08-13T01:49:05.732Z,98845.00
2018-08-13T01:51:40.648Z,98843.00
2018-08-13T01:54:10.340Z,98842.00
2018-08-13T01:56:39.620Z,98837.00
2018-08-13T01:59:08.815Z,98836.00
2018-08-13T02:01:38.008Z,98831.00
2018-08-13T02:04:08.124Z,98832.00
2018-08-13T02:06:37.139Z,98831.00
2018-08-13T02:09:09.700Z,98831.00
2018-08-13T02:11:39.136Z,98833.00
2018-08-13T02:14:08.936Z,98834.00
2018-08-13T02:16:38.029Z,98838.00
2018-08-13T02:19:07.096Z,98833.00
2018-08-13T02:21:36.216Z,98839.00
2018-08-13T02:24:05.407Z,98892.00
2018-08-13T02:26:34.498Z,98888.00
2018-08-13T02:29:03.700Z,98874.00
2018-08-13T02:31:32.853Z,98880.00
2018-08-13T02:34:01.941Z,98905.00
2018-08-13T02:36:31.015Z,98889.00
2018-08-13T02:39:00.193Z,98913.00
2018-08-13T02:41:29.205Z,98907.00
2018-08-13T02:43:59.452Z,98907.00
2018-08-13T02:46:29.571Z,98915.00
2018-08-13T02:48:59.656Z,98903.00
2018-08-13T02:51:29.632Z,98900.00
2018-08-13T02:53:59.731Z,98904.00
2018-08-13T02:56:29.665Z,98897.00
2018-08-13T02:58:59.351Z,98891.00
2018-08-13T03:01:28.824Z,98877.00
2018-08-13T03:03:57.959Z,98881.00
2018-08-13T03:06:27.653Z,98881.00
2018-08-13T03:08:56.738Z,98874.00
2018-08-13T03:11:25.809Z,98878.00
2018-08-13T03:13:54.903Z,98883.00
2018-08-13T03:16:24.932Z,98881.00
2018-08-13T03:18:54.120Z,98883.00
2018-08-13T03:21:23.313Z,98895.00
2018-08-13T03:23:52.623Z,98896.00
2018-08-13T03:26:21.832Z,98897.00
2018-08-13T03:28:51.210Z,98905.00
2018-08-13T03:31:20.447Z,98913.00
2018-08-13T03:33:49.509Z,98923.00
2018-08-13T03:36:18.731Z,98922.00
2018-08-13T03:38:47.849Z,98929.00
2018-08-13T03:41:17.012Z,98943.00
2018-08-13T03:43:46.193Z,98943.00
2018-08-13T03:46:15.404Z,98939.00
2018-08-13T03:48:44.592Z,98945.00
2018-08-13T03:51:14.066Z,98956.00
2018-08-13T03:53:43.473Z,98955.00
2018-08-13T03:56:13.471Z,98964.00
2018-08-13T03:58:42.707Z,98966.00
2018-08-13T04:01:12.152Z,98970.00
2018-08-13T04:03:41.536Z,98978.00
2018-08-13T04:06:11.789Z,98975.00
2018-08-13T04:08:44.227Z,98977.00
2018-08-13T04:11:14.200Z,98987.00
2018-08-13T04:13:43.461Z,98981.00
2018-08-13T04:16:12.863Z,98980.00
2018-08-13T04:18:42.411Z,98974.00
2018-08-13T04:21:13.149Z,98961.00
2018-08-13T04:23:42.736Z,98945.00
2018-08-13T04:26:12.373Z,98952.00
2018-08-13T04:28:42.103Z,98959.00
2018-08-13T04:31:11.548Z,98949.00
2018-08-13T04:33:41.141Z,98952.00
2018-08-13T04:36:11.330Z,98947.00
2018-08-13T04:38:40.862Z,98950.00
2018-08-13T04:41:10.154Z,98939.00
2018-08-13T04:43:39.409Z,98931.00
2018-08-13T04:46:09.500Z,98944.00
2018-08-13T04:48:39.270Z,98958.00
2018-08-13T04:51:09.070Z,98960.00
2018-08-13T04:53:38.486Z,98936.00
2018-08-13T04:56:07.863Z,98930.00
2018-08-13T04:58:37.172Z,98899.00
2018-08-13T05:01:06.542Z,98921.00
2018-08-13T05:03:35.927Z,98926.00
2018-08-13T05:06:05.767Z,98944.00
2018-08-13T05:08:35.319Z,98935.00
2018-08-13T05:11:04.960Z,98931.00
2018-08-13T05:13:34.279Z,98925.00
2018-08-13T05:16:04.095Z,98912.00
2018-08-13T05:18:33.697Z,98897.00
2018-08-13T05:21:02.961Z,98887.00
2018-08-13T05:23:32.118Z,98879.00
2018-08-13T05:26:01.743Z,98864.00
2018-08-13T05:28:31.196Z,98833.00
2018-08-13T05:31:00.446Z,98825.00
2018-08-13T05:33:29.748Z,98822.00
2018-08-13T05:35:59.014Z,98829.00
2018-08-13T05:38:28.942Z,98807.00
2018-08-13T05:40:58.226Z,98826.00
2018-08-13T05:43:27.432Z,98837.00
2018-08-13T05:45:56.833Z,98836.00
2018-08-13T05:48:26.444Z,98833.00
2018-08-13T05:50:55.778Z,98831.00
2018-08-13T05:53:26.020Z,98830.00
2018-08-13T05:55:55.354Z,98837.00
2018-08-13T05:58:24.748Z,98834.00
2018-08-13T06:00:53.937Z,98842.00
2018-08-13T06:03:23.117Z,98851.00
2018-08-13T06:05:52.340Z,98858.00
2018-08-13T06:08:21.481Z,98861.00
2018-08-13T06:10:50.539Z,98861.00
2018-08-13T06:13:20.560Z,98865.00
2018-08-13T06:15:49.857Z,98872.00
2018-08-13T06:18:19.191Z,98871.00
2018-08-13T06:20:48.505Z,98876.00
2018-08-13T06:23:18.152Z,98886.00
2018-08-13T06:25:47.476Z,98889.00
2018-08-13T06:28:16.750Z,98888.00
2018-08-13T06:30:45.935Z,98889.00
2018-08-13T06:33:15.674Z,98891.00
2018-08-13T06:35:45.087Z,98896.00
2018-08-13T06:38:14.457Z,98897.00
2018-08-13T06:40:44.061Z,98901.00
2018-08-13T06:43:13.436Z,98908.00
2018-08-13T06:45:43.766Z,98913.00
2018-08-13T06:48:13.379Z,98915.00
2018-08-13T06:50:43.209Z,98919.00
2018-08-13T06:53:13.140Z,98929.00
2018-08-13T06:55:42.916Z,98927.00
2018-08-13T06:58:12.426Z,98931.00
2018-08-13T07:00:41.696Z,98934.00
2018-08-13T07:03:10.923Z,98937.00
2018-08-13T07:05:40.723Z,98940.00
2018-08-13T07:08:11.042Z,98935.00
2018-08-13T07:10:40.500Z,98941.00
2018-08-13T07:13:09.875Z,98938.00
2018-08-13T07:15:39.391Z,98937.00
2018-08-13T07:18:08.907Z,98943.00
2018-08-13T07:20:39.536Z,98949.00
2018-08-13T07:23:09.424Z,98958.00
2018-08-13T07:25:38.736Z,98959.00
2018-08-13T07:28:08.144Z,98964.00
2018-08-13T07:30:37.634Z,98966.00
2018-08-13T07:33:07.097Z,98966.00
2018-08-13T07:35:36.520Z,98963.00
2018-08-13T07:38:06.177Z,98965.00
2018-08-13T07:40:35.430Z,98971.00
2018-08-13T07:43:04.901Z,98964.00
2018-08-13T07:45:35.349Z,98960.00
2018-08-13T07:48:05.362Z,98959.00
2018-08-13T07:50:34.931Z,98963.00
2018-08-13T07:53:04.748Z,98964.00
2018-08-13T07:55:34.178Z,98960.00
2018-08-13T07:58:03.551Z,98957.00
2018-08-13T08:00:32.675Z,98960.00
2018-08-13T08:03:01.857Z,98958.00
2018-08-13T08:05:30.976Z,98953.00
2018-08-13T08:08:01.278Z,98957.00
2018-08-13T08:10:30.550Z,98965.00
2018-08-13T08:12:59.749Z,98961.00
2018-08-13T08:15:28.845Z,98957.00
2018-08-13T08:17:57.972Z,98950.00
2018-08-13T08:20:27.383Z,98947.00
2018-08-13T08:22:56.521Z,98942.00
2018-08-13T08:25:25.677Z,98944.00
2018-08-13T08:27:55.927Z,98945.00
2018-08-13T08:30:25.070Z,98949.00
2018-08-13T08:32:54.315Z,98953.00
2018-08-13T08:35:23.598Z,98942.00
2018-08-13T08:37:52.973Z,98949.00
2018-08-13T08:40:22.225Z,98941.00
2018-08-13T08:42:51.460Z,98951.00
2018-08-13T08:45:26.488Z,98947.00
2018-08-13T08:47:56.521Z,98948.00
2018-08-13T08:50:26.775Z,98949.00
2018-08-13T08:52:56.421Z,98946.00
2018-08-13T08:55:26.152Z,98942.00
2018-08-13T08:57:55.927Z,98940.00
2018-08-13T09:00:25.617Z,98942.00
2018-08-13T09:02:54.843Z,98949.00
2018-08-13T09:05:24.132Z,98950.00
2018-08-13T09:07:53.211Z,98955.00
2018-08-13T09:10:22.539Z,98949.00
2018-08-13T09:12:51.986Z,98951.00
2018-08-13T09:15:21.428Z,98950.00
2018-08-13T09:18:08.494Z,98950.00
2018-08-13T09:20:54.829Z,98949.00
2018-08-13T09:23:41.338Z,98947.00
2018-08-13T09:26:27.971Z,98942.00
2018-08-13T09:29:14.369Z,98932.00
2018-08-13T09:32:28.189Z,98925.00
2018-08-13T09:35:33.940Z,98924.00
2018-08-13T09:38:03.398Z,98931.00
2018-08-13T09:40:35.150Z,98920.00
2018-08-13T09:43:06.297Z,98918.00
2018-08-13T09:45:35.677Z,98909.00
2018-08-13T09:48:06.892Z,98915.00
2018-08-13T09:50:36.517Z,98918.00
2018-08-13T09:53:06.564Z,98907.00
2018-08-13T09:55:36.286Z,98917.00
2018-08-13T09:58:06.461Z,98911.00
2018-08-13T10:00:41.113Z,98910.00
2018-08-13T10:03:11.361Z,98890.00
2018-08-13T10:05:40.544Z,98907.00
2018-08-13T10:08:10.102Z,98896.00
2018-08-13T10:10:39.794Z,98892.00
2018-08-13T10:13:11.307Z,98891.00
2018-08-13T10:15:40.748Z,98897.00
2018-08-13T10:18:10.698Z,98882.00
2018-08-13T10:20:41.897Z,98878.00
2018-08-13T10:23:12.301Z,98885.00
2018-08-13T10:25:42.865Z,98889.00
2018-08-13T10:28:12.985Z,98892.00
2018-08-13T10:30:42.627Z,98875.00
2018-08-13T10:33:11.901Z,98873.00
2018-08-13T10:35:41.887Z,98889.00
2018-08-13T10:38:11.461Z,98881.00
2018-08-13T10:40:41.626Z,98876.00
2018-08-13T10:43:11.461Z,98882.00
2018-08-13T10:45:42.255Z,98870.00
2018-08-13T10:48:11.800Z,98869.00
2018-08-13T10:50:42.504Z,98869.00
2018-08-13T10:53:11.626Z,98867.00
2018-08-13T10:55:40.788Z,98862.00
2018-08-13T10:58:10.854Z,98864.00
2018-08-13T11:00:41.349Z,98870.00
2018-08-13T11:03:11.497Z,98871.00
2018-08-13T11:05:42.181Z,98877.00
2018-08-13T11:08:11.814Z,98872.00
2018-08-13T11:10:41.478Z,98870.00
2018-08-13T11:13:11.467Z,98873.00
2018-08-13T11:15:41.284Z,98891.00
2018-08-13T11:18:11.162Z,98905.00
2018-08-13T11:20:41.061Z,98922.00
2018-08-13T11:23:10.898Z,98918.00
2018-08-13T11:25:41.022Z,98933.00
2018-08-13T11:28:11.671Z,98924.00
2018-08-13T11:30:41.879Z,98918.00
2018-08-13T11:33:11.733Z,98913.00
2018-08-13T11:35:42.300Z,98906.00
2018-08-13T11:38:12.768Z,98908.00
2018-08-13T11:40:42.465Z,98899.00
2018-08-13T11:43:12.005Z,98892.00
2018-08-13T11:45:41.624Z,98891.00
2018-08-13T11:48:11.405Z,98888.00
2018-08-13T11:50:41.300Z,98890.00
2018-08-13T11:53:10.793Z,98887.00
2018-08-13T11:55:43.334Z,98876.00
2018-08-13T11:58:13.785Z,98872.00
2018-08-13T12:00:43.496Z,98885.00
2018-08-13T12:03:13.064Z,98881.00
2018-08-13T12:05:42.398Z,98893.00
2018-08-13T12:08:11.798Z,98879.00
2018-08-13T12:10:42.779Z,98883.00
2018-08-13T12:13:13.566Z,98881.00
2018-08-13T12:15:43.352Z,98878.00
2018-08-13T12:18:12.957Z,98887.00
2018-08-13T12:20:43.796Z,98893.00
2018-08-13T12:23:13.366Z,98895.00
2018-08-13T12:25:42.890Z,98896.00
2018-08-13T12:28:12.882Z,98887.00
2018-08-13T12:30:42.545Z,98885.00
2018-08-13T12:33:12.809Z,98884.00
2018-08-13T12:35:42.459Z,98891.00
2018-08-13T12:38:12.847Z,98880.00
2018-08-13T12:40:43.739Z,98881.00
2018-08-13T12:43:13.880Z,98876.00
2018-08-13T12:45:43.822Z,98858.00
2018-08-13T12:48:13.472Z,98882.00
2018-08-13T12:50:43.503Z,98881.00
2018-08-13T12:53:12.717Z,98878.00
2018-08-13T12:55:41.951Z,98877.00
2018-08-13T12:58:12.408Z,98892.00
2018-08-13T13:00:42.078Z,98891.00
2018-08-13T13:03:11.260Z,98881.00
2018-08-13T13:05:40.652Z,98889.00
2018-08-13T13:08:10.239Z,98896.00
2018-08-13T13:10:39.791Z,98894.00
2018-08-13T13:13:09.425Z,98879.00
2018-08-13T13:15:38.889Z,98902.00
2018-08-13T13:18:07.999Z,98897.00
2018-08-13T13:20:37.476Z,98914.00
2018-08-13T13:23:07.001Z,98921.00
2018-08-13T13:25:37.525Z,98910.00
2018-08-13T13:28:06.784Z,98918.00
2018-08-13T13:30:36.201Z,98919.00
2018-08-13T13:33:05.515Z,98912.00
2018-08-13T13:35:35.223Z,98906.00
2018-08-13T13:38:04.525Z,98911.00
2018-08-13T13:40:34.180Z,98901.00
2018-08-13T13:43:03.390Z,98906.00
2018-08-13T13:45:33.808Z,98911.00
2018-08-13T13:48:04.231Z,98916.00
2018-08-13T13:50:33.530Z,98916.00
2018-08-13T13:53:03.389Z,98924.00
2018-08-13T13:55:36.799Z,98926.00
2018-08-13T13:58:07.358Z,98926.00
2018-08-13T14:00:37.791Z,98928.00
2018-08-13T14:03:07.715Z,98933.00
2018-08-13T14:05:37.738Z,98930.00
2018-08-13T14:08:07.213Z,98924.00
2018-08-13T14:10:37.028Z,98932.00
2018-08-13T14:13:07.113Z,98934.00
2018-08-13T14:15:36.645Z,98921.00
2018-08-13T14:18:07.429Z,98928.00
2018-08-13T14:20:37.585Z,98912.00
2018-08-13T14:23:08.000Z,98917.00
2018-08-13T14:25:38.375Z,98922.00
2018-08-13T14:28:09.632Z,98927.00
2018-08-13T14:30:42.591Z,98925.00
2018-08-13T14:33:12.470Z,98924.00
2018-08-13T14:35:45.383Z,98925.00
2018-08-13T14:38:16.254Z,98915.00
2018-08-13T14:40:46.499Z,98926.00
2018-08-13T14:43:17.109Z,98925.00
2018-08-13T14:45:46.984Z,98919.00
2018-08-13T14:48:16.979Z,98928.00
2018-08-13T14:50:49.569Z,98904.00
2018-08-13T14:53:19.549Z,98928.00
2018-08-13T14:55:52.448Z,98926.00
2018-08-13T14:58:22.015Z,98931.00
2018-08-13T15:00:51.551Z,98935.00
2018-08-13T15:03:21.140Z,98938.00
2018-08-13T15:05:50.718Z,98937.00
2018-08-13T15:08:23.652Z,98939.00
2018-08-13T15:10:55.941Z,98949.00
2018-08-13T15:13:26.020Z,98949.00
2018-08-13T15:15:55.489Z,98947.00
2018-08-13T15:18:27.823Z,98952.00
2018-08-13T15:20:57.528Z,98947.00
2018-08-13T15:23:29.817Z,98950.00
2018-08-13T15:25:59.222Z,98949.00
2018-08-13T15:28:29.648Z,98949.00
2018-08-13T15:31:02.703Z,98950.00
2018-08-13T15:33:33.274Z,98949.00
2018-08-13T15:36:04.520Z,98950.00
2018-08-13T15:38:37.670Z,98955.00
2018-08-13T15:41:08.266Z,98957.00
2018-08-13T15:43:37.495Z,98953.00
2018-08-13T15:46:09.425Z,98960.00
2018-08-13T15:48:40.581Z,98958.00
2018-08-13T15:51:11.191Z,98961.00
2018-08-13T15:53:43.984Z,98963.00
2018-08-13T15:56:14.430Z,98969.00
2018-08-13T15:58:46.101Z,98972.00
2018-08-13T16:01:16.051Z,98970.00
2018-08-13T16:03:47.469Z,98964.00
2018-08-13T16:06:17.193Z,98965.00
2018-08-13T16:08:46.991Z,98970.00
2018-08-13T16:11:16.601Z,98960.00
2018-08-13T16:13:46.074Z,98956.00
2018-08-13T16:16:15.768Z,98955.00
2018-08-13T16:18:46.559Z,98954.00
2018-08-13T16:21:16.409Z,98950.00
2018-08-13T16:23:47.223Z,98959.00
2018-08-13T16:26:17.483Z,98954.00
2018-08-13T16:28:47.054Z,98954.00
2018-08-13T16:31:17.502Z,98949.00
2018-08-13T16:33:47.090Z,98949.00
2018-08-13T16:36:18.758Z,98946.00
2018-08-13T16:38:58.457Z,98944.00
2018-08-13T16:41:28.569Z,98939.00
2018-08-13T16:43:58.127Z,98940.00
2018-08-13T16:46:27.687Z,98936.00
2018-08-13T16:48:57.176Z,98939.00
2018-08-13T16:51:26.912Z,98936.00
2018-08-13T16:53:56.540Z,98941.00
2018-08-13T16:56:25.913Z,98945.00
2018-08-13T16:58:57.890Z,98946.00
2018-08-13T17:01:28.383Z,98947.00
2018-08-13T17:03:57.929Z,98947.00
2018-08-13T17:06:27.388Z,98950.00
2018-08-13T17:08:57.184Z,98957.00
2018-08-13T17:11:31.376Z,98951.00
2018-08-13T17:14:01.115Z,98948.00
2018-08-13T17:16:33.473Z,98954.00
2018-08-13T17:19:05.121Z,98954.00
2018-08-13T17:21:34.649Z,98964.00
2018-08-13T17:24:09.904Z,98966.00
2018-08-13T17:26:46.494Z,98968.00
2018-08-13T17:29:17.034Z,98967.00
2018-08-13T17:31:50.770Z,98972.00
2018-08-13T17:34:23.012Z,98966.00
2018-08-13T17:36:52.616Z,98963.00
2018-08-13T17:39:22.709Z,98981.00
2018-08-13T17:41:53.320Z,98981.00
2018-08-13T17:44:26.957Z,98976.00
2018-08-13T17:46:58.325Z,98977.00
2018-08-13T17:49:28.758Z,98977.00
2018-08-13T17:52:00.513Z,98975.00
2018-08-13T17:54:31.067Z,98978.00
2018-08-13T18:03:45.491Z,98995.00
2018-08-13T18:06:16.516Z,98988.00
2018-08-13T18:08:49.625Z,99000.00
2018-08-13T18:11:23.450Z,98998.00
2018-08-13T18:13:54.320Z,99003.00
2018-08-13T18:16:25.909Z,99013.00
2018-08-13T18:18:57.364Z,99014.00
2018-08-13T18:21:28.790Z,99014.00
2018-08-13T18:23:59.523Z,99015.00
2018-08-13T18:26:29.653Z,99018.00
2018-08-13T18:28:59.133Z,99027.00
2018-08-13T18:31:29.140Z,99023.00
2018-08-13T18:33:59.036Z,99025.00
2018-08-13T18:36:32.470Z,99023.00
2018-08-13T18:39:06.263Z,99024.00
2018-08-13T18:41:37.135Z,99033.00
2018-08-13T18:44:10.447Z,99037.00
2018-08-13T18:46:41.569Z,99029.00
2018-08-13T18:49:11.640Z,99030.00
2018-08-13T18:51:42.417Z,99029.00
2018-08-13T18:54:14.943Z,99047.00
2018-08-13T18:56:45.650Z,99040.00
2018-08-13T18:59:15.434Z,99050.00
2018-08-13T19:01:45.992Z,99048.00
2018-08-13T19:04:19.237Z,99053.00
2018-08-13T19:06:48.886Z,99057.00
2018-08-13T19:09:18.289Z,99060.00
2018-08-13T19:11:51.826Z,99059.00
2018-08-13T19:14:24.785Z,99062.00
2018-08-13T19:16:54.910Z,99062.00
2018-08-13T19:19:25.230Z,99066.00
2018-08-13T19:21:56.755Z,99072.00
2018-08-13T19:24:27.524Z,99068.00
2018-08-13T19:26:57.986Z,99072.00
2018-08-13T19:29:28.337Z,99079.00
2018-08-13T19:31:58.137Z,99077.00
2018-08-13T19:34:27.987Z,99071.00
2018-08-13T19:36:58.328Z,99074.00
2018-08-13T19:39:28.047Z,99080.00
2018-08-13T19:41:57.479Z,99084.00
2018-08-13T19:44:27.955Z,99086.00
2018-08-13T19:47:02.595Z,99089.00
2018-08-13T19:49:32.679Z,99092.00
2018-08-13T19:52:08.930Z,99086.00
2018-08-13T19:54:39.774Z,99090.00
2018-08-13T19:57:10.053Z,99086.00
2018-08-13T19:59:40.051Z,99091.00
2018-08-13T20:02:11.737Z,99093.00
2018-08-13T20:04:41.795Z,99087.00
2018-08-13T20:07:11.692Z,99098.00
2018-08-13T20:09:41.200Z,99095.00
2018-08-13T20:12:10.710Z,99094.00
2018-08-13T20:14:40.214Z,99097.00
2018-08-13T20:17:11.142Z,99095.00
2018-08-13T20:19:42.335Z,99091.00
2018-08-13T20:22:15.298Z,99093.00
2018-08-13T20:24:45.590Z,99098.00
2018-08-13T20:27:16.045Z,99104.00
2018-08-13T20:29:46.878Z,99100.00
2018-08-13T20:32:17.129Z,99101.00
2018-08-13T20:34:46.357Z,99102.00
2018-08-13T20:37:16.410Z,99104.00
2018-08-13T20:39:46.369Z,99108.00
2018-08-13T20:42:16.458Z,99107.00
2018-08-13T20:44:47.714Z,99109.00
2018-08-13T20:47:17.992Z,99114.00
2018-08-13T20:49:48.284Z,99115.00
2018-08-13T20:52:17.412Z,99119.00
2018-08-13T20:54:46.638Z,99126.00
2018-08-13T20:57:15.843Z,99122.00
2018-08-13T20:59:44.947Z,99127.00
2018-08-13T21:02:14.254Z,99131.00
2018-08-13T21:04:43.817Z,99136.00
2018-08-13T21:07:13.122Z,99136.00
2018-08-13T21:09:43.687Z,99140.00
2018-08-13T21:12:12.869Z,99139.00
2018-08-13T21:14:42.187Z,99143.00
2018-08-13T21:17:11.414Z,99142.00
2018-08-13T21:19:40.658Z,99144.00
2018-08-13T21:22:09.757Z,99142.00
2018-08-13T21:24:40.740Z,99148.00
2018-08-13T21:27:09.924Z,99148.00
2018-08-13T21:29:39.216Z,99149.00
2018-08-13T21:32:08.909Z,99154.00
2018-08-13T21:34:38.300Z,99152.00
2018-08-13T21:37:08.013Z,99160.00
2018-08-13T21:39:37.330Z,99156.00
2018-08-13T21:42:06.660Z,99155.00
2018-08-13T21:44:35.920Z,99160.00
2018-08-13T21:47:05.707Z,99161.00
2018-08-13T21:49:35.521Z,99162.00
2018-08-13T21:52:05.436Z,99170.00
2018-08-13T21:54:34.658Z,99172.00
2018-08-13T21:57:08.282Z,99172.00
2018-08-13T21:59:37.584Z,99179.00
2018-08-13T22:02:12.713Z,99175.00
2018-08-13T22:04:45.273Z,99179.00
2018-08-13T22:07:16.427Z,99181.00
2018-08-13T22:09:48.903Z,99183.00
2018-08-13T22:12:21.595Z,99181.00
2018-08-13T22:14:54.391Z,99185.00
2018-08-13T22:17:25.459Z,99186.00
2018-08-13T22:19:55.174Z,99189.00
2018-08-13T22:22:27.027Z,99193.00
2018-08-13T22:25:03.944Z,99193.00
2018-08-13T22:27:33.373Z,99191.00
2018-08-13T22:30:04.214Z,99195.00
2018-08-13T22:32:34.097Z,99198.00
2018-08-13T22:35:06.285Z,99200.00
2018-08-13T22:37:40.444Z,99205.00
2018-08-13T22:40:16.927Z,99208.00
2018-08-13T22:42:46.853Z,99210.00
2018-08-13T22:45:19.941Z,99216.00
2018-08-13T22:47:51.519Z,99217.00
2018-08-13T22:50:21.028Z,99221.00
2018-08-13T22:52:50.597Z,99225.00
2018-08-13T22:55:20.230Z,99227.00
2018-08-13T22:57:52.680Z,99230.00
2018-08-13T23:00:22.260Z,99229.00
2018-08-13T23:02:52.503Z,99230.00
2018-08-13T23:05:25.076Z,99233.00
2018-08-13T23:07:57.083Z,99238.00
2018-08-13T23:10:27.632Z,99238.00
2018-08-13T23:12:57.434Z,99232.00
2018-08-13T23:15:27.103Z,99236.00
2018-08-13T23:17:56.713Z,99245.00
2018-08-13T23:20:29.973Z,99244.00
2018-08-13T23:23:00.595Z,99250.00
2018-08-13T23:25:30.879Z,99242.00
2018-08-13T23:28:05.555Z,99241.00
2018-08-13T23:30:35.405Z,99252.00
2018-08-13T23:33:07.811Z,99249.00
2018-08-13T23:35:37.558Z,99255.00
2018-08-13T23:38:06.977Z,99257.00
2018-08-13T23:40:36.275Z,99263.00
2018-08-13T23:43:05.740Z,99263.00
2018-08-13T23:45:35.108Z,99267.00
2018-08-13T23:48:05.614Z,99266.00
2018-08-13T23:50:35.108Z,99266.00
2018-08-13T23:53:04.474Z,99270.00
2018-08-13T23:55:40.187Z,99269.00
2018-08-13T23:58:12.243Z,99268.00
